»·PEaware :: SWA9248 KLAS-KAMA

SWA9248 :: KLAS-KAMA

FLIGHT INFORMATION

Flight Status: Arrived
Operator:
Southwest Airlines
More flights by this operator :: More flights under this callsign
Pilot: Benjamin P. (8664)
Aircraft: BOEING 737-800
(B738)
More flights by this aircraft type
Origin: KLAS McCarran Intl
United States
Destination: KAMA Amarillo Intl
United States
More flights between these airports :: More routes between these airports
Route: + / GCN194023 TCC
File this flight plan on PilotEdge
Remarks: PBN / A1B1C1D1L1O1S1 NAV / RNVD1E2A1 DOF / 170714 REG / SWA73H EET / KZAB0025 RVR / 200 PER / C
Altitude:
(Current/Filed)
39,000ft
Speed:
(Current/Filed)
458kts
Departed: 13-Jul-17 06:31 PM
Arrived: 13-Jul-17 08:10 PM
Distance/Time
Traveled:
657nm/1:39
Distance/Time
To Go:
Arrived

Flight Plot

Page will automatically refresh every two minutes.

Flight plan parsing failed; only flown route is shown


Map Options




Map Legend


Flown Route
Filed Route
Departure Airport
Arrival Airport
Navaid (VOR, NDB)
Fix

Horizontal Profiles

Position Reports

Time Latitude Longitude Heading Altitude Ground
Speed
13-Jul-17 18:06 36.083695 -115.152272 109 2188ft 0kts
13-Jul-17 18:07 36.083695 -115.152272 109 2188ft 0kts
13-Jul-17 18:08 36.083695 -115.152272 109 2188ft 0kts
13-Jul-17 18:09 36.083695 -115.152272 109 2189ft 0kts
13-Jul-17 18:10 36.083695 -115.152272 109 2189ft 0kts
13-Jul-17 18:11 36.083695 -115.152272 109 2189ft 0kts
13-Jul-17 18:12 36.083695 -115.152272 109 2189ft 0kts
13-Jul-17 18:13 36.083695 -115.152272 109 2189ft 0kts
13-Jul-17 18:14 36.083695 -115.152272 109 2189ft 0kts
13-Jul-17 18:15 36.083695 -115.152272 109 2189ft 0kts
13-Jul-17 18:16 36.083695 -115.152272 109 2189ft 0kts
13-Jul-17 18:17 36.083695 -115.152272 109 2189ft 0kts
13-Jul-17 18:18 36.083695 -115.152272 109 2189ft 0kts
13-Jul-17 18:19 36.083695 -115.152272 109 2189ft 0kts
13-Jul-17 18:20 36.083695 -115.152272 109 2189ft 0kts
13-Jul-17 18:21 36.083695 -115.152272 109 2189ft 0kts
13-Jul-17 18:22 36.083695 -115.152272 109 2189ft 0kts
13-Jul-17 18:23 36.083695 -115.152272 109 2189ft 0kts
13-Jul-17 18:24 36.083703 -115.152299 109 2189ft 1kts
13-Jul-17 18:25 36.083922 -115.153041 109 2189ft 2kts
13-Jul-17 18:26 36.084003 -115.153315 109 2189ft 0kts
13-Jul-17 18:27 36.084003 -115.153315 109 2189ft 0kts
13-Jul-17 18:28 36.084169 -115.153190 316 2189ft 2kts
13-Jul-17 18:29 36.085448 -115.156036 11 2189ft 9kts
13-Jul-17 18:30 36.089313 -115.156170 347 2189ft 30kts
13-Jul-17 18:31 36.096087 -115.152778 26 2189ft 18kts
13-Jul-17 18:32 36.097924 -115.152200 297 2189ft 0kts
13-Jul-17 18:33 36.097918 -115.153921 208 2189ft 15kts
13-Jul-17 18:34 36.072151 -115.168659 204 3074ft 163kts
13-Jul-17 18:35 36.025074 -115.195796 210 5061ft 231kts
13-Jul-17 18:36 35.983694 -115.269951 232 6961ft 283kts
13-Jul-17 18:37 35.911891 -115.280563 156 9042ft 292kts
13-Jul-17 18:38 35.854406 -115.211200 108 11604ft 335kts
13-Jul-17 18:39 35.826594 -115.091729 101 13777ft 376kts
13-Jul-17 18:40 35.831501 -114.960393 84 16251ft 394kts
13-Jul-17 18:41 35.843915 -114.823339 84 18637ft 411kts
13-Jul-17 18:42 35.856568 -114.680208 84 20745ft 427kts
13-Jul-17 18:43 35.869916 -114.532377 84 22617ft 441kts
13-Jul-17 18:44 35.883303 -114.379805 84 24281ft 454kts
13-Jul-17 18:45 35.897036 -114.222527 84 25811ft 466kts
13-Jul-17 18:46 35.910487 -114.062139 84 27243ft 475kts
13-Jul-17 18:47 35.918566 -113.898521 95 28543ft 482kts
13-Jul-17 18:48 35.889984 -113.735693 105 29714ft 489kts
13-Jul-17 18:49 35.855909 -113.573146 105 31113ft 488kts
13-Jul-17 18:50 35.822627 -113.412028 105 32702ft 483kts
13-Jul-17 18:51 35.789511 -113.252033 105 34193ft 479kts
13-Jul-17 18:52 35.756569 -113.094616 105 35745ft 472kts
13-Jul-17 18:53 35.723806 -112.939283 105 37132ft 466kts
13-Jul-17 18:54 35.691162 -112.785583 105 38433ft 460kts
13-Jul-17 18:55 35.658985 -112.633923 105 39315ft 460kts
13-Jul-17 18:56 35.630635 -112.481538 95 39339ft 456kts
13-Jul-17 18:57 35.627064 -112.324979 92 39351ft 457kts
13-Jul-17 18:58 35.624403 -112.169033 92 39357ft 456kts
13-Jul-17 18:59 35.621542 -112.013312 91 39365ft 456kts
13-Jul-17 19:00 35.619040 -111.857133 92 39366ft 456kts
13-Jul-17 19:01 35.616125 -111.701514 92 39368ft 456kts
13-Jul-17 19:02 35.612932 -111.545852 92 39347ft 456kts
13-Jul-17 19:03 35.609498 -111.389504 92 39342ft 457kts
13-Jul-17 19:04 35.605863 -111.233631 92 39331ft 457kts
13-Jul-17 19:05 35.602023 -111.077715 92 39312ft 457kts
13-Jul-17 19:06 35.597965 -110.921302 92 39292ft 457kts
13-Jul-17 19:07 35.593722 -110.765440 92 39275ft 457kts
13-Jul-17 19:08 35.589278 -110.609604 92 39244ft 457kts
13-Jul-17 19:09 35.584619 -110.453359 92 39220ft 456kts
13-Jul-17 19:10 35.579779 -110.297711 92 39232ft 456kts
13-Jul-17 19:11 35.574723 -110.141626 92 39240ft 456kts
13-Jul-17 19:12 35.569487 -109.986192 92 39249ft 456kts
13-Jul-17 19:13 35.564050 -109.830730 92 39271ft 456kts
13-Jul-17 19:14 35.558393 -109.674715 93 39288ft 456kts
13-Jul-17 19:15 35.552554 -109.519201 93 39302ft 457kts
13-Jul-17 19:16 35.546506 -109.363537 93 39316ft 457kts
13-Jul-17 19:17 35.540236 -109.207323 93 39319ft 457kts
13-Jul-17 19:18 35.533779 -109.051470 93 39320ft 458kts
13-Jul-17 19:19 35.527116 -108.895520 93 39303ft 458kts
13-Jul-17 19:20 35.520338 -108.741534 93 39290ft 458kts
13-Jul-17 19:21 35.513366 -108.587857 93 39291ft 459kts
13-Jul-17 19:22 35.506099 -108.431631 93 39297ft 459kts
13-Jul-17 19:23 35.498598 -108.274864 93 39308ft 459kts
13-Jul-17 19:24 35.490910 -108.118498 94 39327ft 460kts
13-Jul-17 19:25 35.483013 -107.962124 93 39341ft 459kts
13-Jul-17 19:26 35.474920 -107.805727 93 39351ft 459kts
13-Jul-17 19:27 35.466637 -107.649647 94 39353ft 459kts
13-Jul-17 19:28 35.458170 -107.493906 94 39352ft 458kts
13-Jul-17 19:29 35.449485 -107.337867 94 39351ft 457kts
13-Jul-17 19:30 35.440642 -107.182600 94 39348ft 456kts
13-Jul-17 19:31 35.420164 -107.030128 109 39346ft 456kts
13-Jul-17 19:32 35.377824 -106.883338 109 39339ft 455kts
13-Jul-17 19:33 35.335755 -106.737425 109 39326ft 455kts
13-Jul-17 19:34 35.293655 -106.591247 109 39328ft 455kts
13-Jul-17 19:35 35.254353 -106.443932 100 39343ft 454kts
13-Jul-17 19:36 35.250229 -106.290142 88 39367ft 453kts
13-Jul-17 19:37 35.251787 -106.135561 88 39396ft 453kts
13-Jul-17 19:38 35.253053 -105.981379 88 39410ft 453kts
13-Jul-17 19:39 35.254723 -105.827432 88 39435ft 453kts
13-Jul-17 19:40 35.256000 -105.673054 88 39445ft 453kts
13-Jul-17 19:41 35.256994 -105.519224 88 39452ft 453kts
13-Jul-17 19:42 35.257764 -105.365379 88 39447ft 453kts
13-Jul-17 19:43 35.258332 -105.211028 88 39445ft 452kts
13-Jul-17 19:44 35.258698 -105.057203 88 39443ft 452kts
13-Jul-17 19:45 35.258872 -104.903330 88 39436ft 453kts
13-Jul-17 19:46 35.258849 -104.749001 88 39426ft 453kts
13-Jul-17 19:47 35.258631 -104.595049 88 39410ft 453kts
13-Jul-17 19:48 35.258218 -104.441087 88 39383ft 453kts
13-Jul-17 19:49 35.257608 -104.286549 88 39348ft 453kts
13-Jul-17 19:50 35.256804 -104.132434 89 39314ft 453kts
13-Jul-17 19:51 35.255808 -103.978735 89 37322ft 452kts
13-Jul-17 19:52 35.254613 -103.824284 89 34470ft 454kts
13-Jul-17 19:53 35.253222 -103.669736 89 31610ft 452kts
13-Jul-17 19:54 35.251672 -103.518561 90 29339ft 439kts
13-Jul-17 19:55 35.249977 -103.371070 90 27127ft 427kts
13-Jul-17 19:56 35.248154 -103.227246 90 24718ft 420kts
13-Jul-17 19:57 35.246210 -103.086741 90 22564ft 407kts
13-Jul-17 19:58 35.244159 -102.949872 90 20470ft 395kts
13-Jul-17 19:59 35.242036 -102.817685 90 18442ft 383kts
13-Jul-17 20:00 35.239841 -102.689408 91 16477ft 372kts
13-Jul-17 20:01 35.237576 -102.564423 91 14580ft 361kts
13-Jul-17 20:02 35.235258 -102.443344 92 12736ft 351kts
13-Jul-17 20:03 35.232883 -102.325221 92 11111ft 337kts
13-Jul-17 20:04 35.230598 -102.216398 93 10401ft 304kts
13-Jul-17 20:05 35.228379 -102.116971 93 9513ft 287kts
13-Jul-17 20:06 35.226681 -102.019902 93 8279ft 282kts
13-Jul-17 20:07 35.232989 -101.925740 81 7258ft 270kts
13-Jul-17 20:08 35.246196 -101.838484 82 6519ft 247kts
13-Jul-17 20:09 35.266555 -101.763167 54 5943ft 218kts
13-Jul-17 20:10 35.279595 -101.707656 124 5267ft 155kts
13-Jul-17 20:11 35.247851 -101.681489 190 4288ft 149kts
13-Jul-17 20:12 35.221176 -101.712283 227 3615ft 65kts
13-Jul-17 20:13 35.217830 -101.713004 46 3615ft 18kts
13-Jul-17 20:14 35.218221 -101.709318 135 3615ft 1kts
13-Jul-17 20:15 35.218214 -101.709310 135 3615ft 0kts
13-Jul-17 20:16 35.218214 -101.709310 135 3615ft 0kts

Navigation Log

Ident Type
Flight plan parsing failed, navigation log unavailable